Time;durP1;ratioP1;P1;durP2;ratioP2;P2;SDS_P1;SDS_P2;PMS_P1;PMS_P2;Temp;Humidity;BMP_temperature;BMP_pressure;BME280_temperature;BME280_humidity;BME280_pressure;Samples;Min_cycle;Max_cycle;Signal;HPM_P1;HPM_P2
2022/03/13 00:01:46;;;;;;;18.67;10.35;;;;;;;;;;5070668;27;97405;-75
2022/03/13 00:04:13;;;;;;;16.70;10.38;;;;;;;;;;5069860;27;95426;-75
2022/03/13 00:06:40;;;;;;;16.67;10.63;;;;;;;;;;5070928;27;96964;-76
2022/03/13 00:09:12;;;;;;;17.65;10.57;;;;;;;;;;5069815;27;97744;-75
2022/03/13 00:11:39;;;;;;;15.85;10.43;;;;;;;;;;5069104;27;95818;-75
2022/03/13 00:14:05;;;;;;;16.50;10.23;;;;;;;;;;5070566;27;97137;-75
2022/03/13 00:16:32;;;;;;;15.63;9.63;;;;;;;;;;5073349;27;97226;-75
2022/03/13 00:18:59;;;;;;;19.60;10.40;;;;;;;;;;5070712;27;96843;-75
2022/03/13 00:21:25;;;;;;;17.42;10.63;;;;;;;;;;5070498;27;97819;-75
2022/03/13 00:23:51;;;;;;;17.05;10.38;;;;;;;;;;5069933;27;95537;-74
2022/03/13 00:26:18;;;;;;;17.67;11.07;;;;;;;;;;5070306;27;96846;-75
2022/03/13 00:28:45;;;;;;;15.65;9.57;;;;;;;;;;5070096;27;97910;-74
2022/03/13 00:31:11;;;;;;;17.77;9.45;;;;;;;;;;5069606;27;95214;-74
2022/03/13 00:33:38;;;;;;;14.43;9.50;;;;;;;;;;5070892;27;96772;-74
2022/03/13 00:36:05;;;;;;;17.60;9.45;;;;;;;;;;5070063;27;97496;-75
2022/03/13 00:38:50;;;;;;;16.13;9.93;;;;;;;;;;5072563;27;95892;-75
2022/03/13 00:41:16;;;;;;;16.27;9.48;;;;;;;;;;5070143;27;97399;-75
2022/03/13 00:43:43;;;;;;;15.45;8.82;;;;;;;;;;5070875;27;96297;-75
2022/03/13 00:46:27;;;;;;;15.00;8.60;;;;;;;;;;5069489;27;95279;-73
2022/03/13 00:48:53;;;;;;;14.82;9.10;;;;;;;;;;5069877;27;96100;-75
2022/03/13 00:51:19;;;;;;;15.32;9.40;;;;;;;;;;5069946;27;95281;-75
2022/03/13 00:53:46;;;;;;;13.73;8.98;;;;;;;;;;5070214;27;96763;-74
2022/03/13 00:56:12;;;;;;;16.77;8.25;;;;;;;;;;5068902;27;96312;-73
2022/03/13 00:58:40;;;;;;;13.25;8.60;;;;;;;;;;5070059;27;95385;-75
2022/03/13 01:01:07;;;;;;;15.27;8.68;;;;;;;;;;5072608;27;97273;-74
2022/03/13 01:03:52;;;;;;;12.55;8.38;;;;;;;;;;5069942;27;95388;-75
2022/03/13 01:06:19;;;;;;;15.00;7.40;;;;;;;;;;5068863;27;97174;-75
2022/03/13 01:08:46;;;;;;;14.32;7.68;;;;;;;;;;5069870;27;96697;-74
2022/03/13 01:11:30;;;;;;;19.15;7.35;;;;;;;;;;5067400;27;95720;-75
2022/03/13 01:13:57;;;;;;;12.40;6.90;;;;;;;;;;5069784;27;95940;-75
2022/03/13 01:16:25;;;;;;;11.77;7.38;;;;;;;;;;5068552;27;97357;-75
2022/03/13 01:18:52;;;;;;;10.85;7.05;;;;;;;;;;5069792;27;95358;-75
2022/03/13 01:21:19;;;;;;;13.05;6.82;;;;;;;;;;5067972;27;96863;-75
2022/03/13 01:24:13;;;;;;;12.10;6.72;;;;;;;;;;5071533;27;95648;-75
2022/03/13 01:26:40;;;;;;;10.60;6.68;;;;;;;;;;5069995;27;97056;-74
2022/03/13 01:29:08;;;;;;;10.52;6.50;;;;;;;;;;5068165;27;97082;-74
2022/03/13 01:31:36;;;;;;;11.57;6.68;;;;;;;;;;5056389;27;95564;-75
2022/03/13 01:34:04;;;;;;;9.88;6.03;;;;;;;;;;5069152;27;96915;-74
2022/03/13 01:36:30;;;;;;;12.10;6.70;;;;;;;;;;5069529;27;97256;-74
2022/03/13 01:38:58;;;;;;;14.25;6.38;;;;;;;;;;5069616;27;95580;-74
2022/03/13 01:41:42;;;;;;;13.00;6.55;;;;;;;;;;5068761;27;95692;-75
2022/03/13 01:44:08;;;;;;;10.98;6.93;;;;;;;;;;5068878;27;96509;-74
2022/03/13 01:46:34;;;;;;;10.35;6.57;;;;;;;;;;5072433;27;95397;-74
2022/03/13 01:49:05;;;;;;;10.75;6.20;;;;;;;;;;5067137;27;97310;-74
2022/03/13 01:51:32;;;;;;;10.50;6.05;;;;;;;;;;5069691;27;95180;-74
2022/03/13 01:54:01;;;;;;;13.65;6.68;;;;;;;;;;5069180;27;96899;-75
2022/03/13 01:56:29;;;;;;;13.43;6.78;;;;;;;;;;5068843;27;97386;-74
2022/03/13 01:58:55;;;;;;;16.05;6.68;;;;;;;;;;5069331;27;95222;-73
2022/03/13 02:01:24;;;;;;;10.57;6.88;;;;;;;;;;5071958;27;97326;-73
2022/03/13 02:04:10;;;;;;;12.30;6.47;;;;;;;;;;5071321;27;97327;-74
2022/03/13 02:06:37;;;;;;;10.77;6.75;;;;;;;;;;5073155;27;95408;-73
2022/03/13 02:09:06;;;;;;;12.80;7.82;;;;;;;;;;5075127;27;96758;-74
2022/03/13 02:11:38;;;;;;;12.90;7.45;;;;;;;;;;5072915;27;95835;-75
2022/03/13 02:14:05;;;;;;;10.52;6.93;;;;;;;;;;5072076;27;96926;-75
2022/03/13 02:16:32;;;;;;;11.05;7.30;;;;;;;;;;5072320;27;97728;-74
2022/03/13 02:19:18;;;;;;;10.73;6.55;;;;;;;;;;5071193;27;95180;-74
2022/03/13 02:21:48;;;;;;;11.05;6.90;;;;;;;;;;5072841;27;96848;-76
2022/03/13 02:24:19;;;;;;;11.40;6.95;;;;;;;;;;5071252;27;97734;-75
2022/03/13 02:26:55;;;;;;;14.82;7.65;;;;;;;;;;5072877;27;95428;-75
2022/03/13 02:29:21;;;;;;;13.43;7.72;;;;;;;;;;5075425;27;96637;-74
2022/03/13 02:31:47;;;;;;;11.18;7.38;;;;;;;;;;5072334;27;95803;-75
2022/03/13 02:34:15;;;;;;;11.52;7.18;;;;;;;;;;5072111;27;96883;-75
2022/03/13 02:37:01;;;;;;;12.88;7.40;;;;;;;;;;5070694;27;97727;-75
2022/03/13 02:39:29;;;;;;;12.60;7.65;;;;;;;;;;5071488;27;95724;-75
2022/03/13 02:41:55;;;;;;;11.82;7.53;;;;;;;;;;5072150;27;96272;-74
2022/03/13 02:44:21;;;;;;;13.10;7.28;;;;;;;;;;5071554;27;97718;-74
2022/03/13 02:46:48;;;;;;;13.65;7.57;;;;;;;;;;5072071;27;95764;-75
2022/03/13 02:49:19;;;;;;;11.80;7.18;;;;;;;;;;5071396;27;97321;-73
2022/03/13 02:51:46;;;;;;;12.90;7.40;;;;;;;;;;5074695;27;97393;-75
2022/03/13 02:54:14;;;;;;;14.15;7.72;;;;;;;;;;5072651;27;96644;-75
2022/03/13 02:56:40;;;;;;;15.38;8.10;;;;;;;;;;5072325;27;97726;-74
2022/03/13 02:59:07;;;;;;;16.70;8.07;;;;;;;;;;5071253;27;95832;-75
2022/03/13 03:01:34;;;;;;;13.18;7.97;;;;;;;;;;5071961;27;97196;-74
2022/03/13 03:04:00;;;;;;;14.25;8.65;;;;;;;;;;5071426;27;97675;-74
2022/03/13 03:06:53;;;;;;;14.15;8.77;;;;;;;;;;5069850;27;95201;-74
2022/03/13 03:09:19;;;;;;;20.05;9.00;;;;;;;;;;5071898;27;96975;-73
2022/03/13 03:11:46;;;;;;;12.50;8.70;;;;;;;;;;5070892;27;97252;-74
2022/03/13 03:14:13;;;;;;;15.13;8.98;;;;;;;;;;5074659;27;95673;-75
2022/03/13 03:16:39;;;;;;;14.98;8.63;;;;;;;;;;5071604;27;97219;-73
2022/03/13 03:19:05;;;;;;;14.50;9.48;;;;;;;;;;5071492;27;96131;-76
2022/03/13 03:21:52;;;;;;;17.45;9.43;;;;;;;;;;5069127;27;95854;-75
2022/03/13 03:24:20;;;;;;;13.82;9.35;;;;;;;;;;5071260;27;97773;-75
2022/03/13 03:26:47;;;;;;;16.40;9.43;;;;;;;;;;5069413;27;95302;-76
2022/03/13 03:29:13;;;;;;;15.63;9.13;;;;;;;;;;5070175;27;96901;-74
2022/03/13 03:31:41;;;;;;;15.52;9.10;;;;;;;;;;5071522;27;97246;-73
2022/03/13 03:34:12;;;;;;;;;;;;;;;;;;5071740;27;95698;-75
2022/03/13 03:36:43;;;;;;;16.02;8.75;;;;;;;;;;5073264;27;127226;-74
2022/03/13 03:39:10;;;;;;;15.68;10.07;;;;;;;;;;5071199;27;95456;-75
2022/03/13 03:44:22;;;;;;;16.73;10.02;;;;;;;;;;5071399;27;97320;-74
2022/03/13 03:46:49;;;;;;;14.32;9.68;;;;;;;;;;5068794;27;95288;-75
2022/03/13 03:49:16;;;;;;;14.68;9.88;;;;;;;;;;5070717;27;97229;-75
2022/03/13 03:51:43;;;;;;;15.98;9.77;;;;;;;;;;5070648;27;97766;-76
2022/03/13 03:54:28;;;;;;;17.10;10.73;;;;;;;;;;5071358;27;95986;-74
2022/03/13 03:56:54;;;;;;;16.77;10.23;;;;;;;;;;5069845;27;96809;-76
2022/03/13 03:59:20;;;;;;;18.00;10.30;;;;;;;;;;5072389;27;97388;-75
2022/03/13 04:01:47;;;;;;;18.60;10.07;;;;;;;;;;5069907;27;96819;-75
2022/03/13 04:04:16;;;;;;;15.27;9.90;;;;;;;;;;5070058;27;97617;-75
2022/03/13 04:06:42;;;;;;;21.48;10.18;;;;;;;;;;5071283;27;95971;-76
2022/03/13 04:09:10;;;;;;;20.05;10.15;;;;;;;;;;5069681;27;95809;-75
2022/03/13 04:11:54;;;;;;;16.70;10.07;;;;;;;;;;5068585;27;95713;-75
2022/03/13 04:14:21;;;;;;;18.27;10.98;;;;;;;;;;5070127;27;95631;-75
2022/03/13 04:16:47;;;;;;;22.15;11.60;;;;;;;;;;5068450;27;95886;-75
2022/03/13 04:19:14;;;;;;;19.77;11.38;;;;;;;;;;5069296;27;97384;-75
2022/03/13 04:21:41;;;;;;;19.50;11.75;;;;;;;;;;5073744;27;95886;-75
2022/03/13 04:24:07;;;;;;;19.50;11.70;;;;;;;;;;5066850;27;97983;-75
2022/03/13 04:26:34;;;;;;;18.75;12.05;;;;;;;;;;5070308;27;95269;-75
2022/03/13 04:29:00;;;;;;;22.23;13.15;;;;;;;;;;5070101;27;97015;-75
2022/03/13 04:31:27;;;;;;;21.90;12.85;;;;;;;;;;5069609;27;97275;-75
2022/03/13 04:33:53;;;;;;;26.85;13.68;;;;;;;;;;5070119;27;96007;-75
2022/03/13 04:36:23;;;;;;;26.52;13.50;;;;;;;;;;5069968;27;96985;-75
2022/03/13 04:38:49;;;;;;;20.33;13.30;;;;;;;;;;5069084;27;97320;-75
2022/03/13 04:41:16;;;;;;;25.90;13.93;;;;;;;;;;5073520;27;95368;-75
2022/03/13 04:43:43;;;;;;;26.45;13.93;;;;;;;;;;5070072;27;97284;-74
2022/03/13 04:46:12;;;;;;;26.85;14.85;;;;;;;;;;5069908;27;95947;-76
2022/03/13 04:48:39;;;;;;;35.53;14.60;;;;;;;;;;5070182;27;96790;-76
2022/03/13 04:51:05;;;;;;;24.27;14.32;;;;;;;;;;5069280;27;97189;-75
2022/03/13 04:53:31;;;;;;;23.55;15.45;;;;;;;;;;5068611;27;95460;-75
2022/03/13 04:56:10;;;;;;;25.30;15.05;;;;;;;;;;5069810;27;96810;-75
2022/03/13 04:58:37;;;;;;;23.05;14.18;;;;;;;;;;5069262;27;97586;-74
2022/03/13 05:01:03;;;;;;;28.15;14.68;;;;;;;;;;5069539;27;96093;-75
2022/03/13 05:03:33;;;;;;;23.85;14.85;;;;;;;;;;5072728;27;96775;-75
2022/03/13 05:06:00;;;;;;;22.95;14.52;;;;;;;;;;5069271;27;96166;-75
2022/03/13 05:08:26;;;;;;;24.70;14.95;;;;;;;;;;5069953;27;96811;-75
2022/03/13 05:10:53;;;;;;;24.02;14.45;;;;;;;;;;5069165;27;96395;-75
2022/03/13 05:16:40;;;;;;;;;;;;;;;;;;5070778;27;95599;-74
2022/03/13 05:19:06;;;;;;;38.88;14.98;;;;;;;;;;5068270;27;126817;-75
2022/03/13 05:21:36;;;;;;;24.85;15.57;;;;;;;;;;5069709;27;95281;-74
2022/03/13 05:24:03;;;;;;;26.92;16.08;;;;;;;;;;5069275;27;97394;-75
2022/03/13 05:26:29;;;;;;;28.95;16.60;;;;;;;;;;5072042;27;97740;-74
2022/03/13 05:28:55;;;;;;;25.92;15.60;;;;;;;;;;5069541;27;96675;-74
2022/03/13 05:31:22;;;;;;;28.05;15.18;;;;;;;;;;5069236;27;96187;-74
2022/03/13 05:33:48;;;;;;;24.75;15.23;;;;;;;;;;5068819;27;95737;-75
2022/03/13 05:36:15;;;;;;;31.08;15.98;;;;;;;;;;5069520;27;96819;-75
2022/03/13 05:38:42;;;;;;;28.23;15.23;;;;;;;;;;5068673;27;97371;-75
2022/03/13 05:41:09;;;;;;;29.20;15.55;;;;;;;;;;5068439;27;95763;-74
2022/03/13 05:43:36;;;;;;;25.23;15.40;;;;;;;;;;5069073;27;96777;-74
2022/03/13 05:46:02;;;;;;;24.60;15.00;;;;;;;;;;5069079;27;97328;-74
2022/03/13 05:48:30;;;;;;;28.77;15.48;;;;;;;;;;5072155;27;95404;-74
2022/03/13 05:51:14;;;;;;;25.73;15.90;;;;;;;;;;5068258;27;95819;-76
2022/03/13 05:53:41;;;;;;;31.75;15.35;;;;;;;;;;5069024;27;95419;-75
2022/03/13 18:14:35;;;;;;;25.85;14.93;;;;;;;;;;4995914;28;96244;-74
2022/03/13 18:17:02;;;;;;;27.77;16.15;;;;;;;;;;4996602;28;97754;-74
2022/03/13 18:19:28;;;;;;;27.67;16.13;;;;;;;;;;4983768;28;96128;-74
2022/03/13 18:22:13;;;;;;;29.02;15.30;;;;;;;;;;4986456;28;97258;-75
2022/03/13 18:27:25;;;;;;;28.63;16.38;;;;;;;;;;4984475;28;95327;-73
2022/03/13 18:29:58;;;;;;;26.85;17.05;;;;;;;;;;4989734;28;96772;-74
2022/03/13 18:32:25;;;;;;;27.88;16.25;;;;;;;;;;4986384;28;97684;-74
2022/03/13 18:34:51;;;;;;;34.03;21.60;;;;;;;;;;5001413;28;95614;-74
2022/03/13 18:37:19;;;;;;;33.88;20.98;;;;;;;;;;4989898;28;97682;-73
2022/03/13 18:39:45;;;;;;;30.95;20.52;;;;;;;;;;4991908;28;95457;-73
2022/03/13 18:42:12;;;;;;;32.33;19.85;;;;;;;;;;4994915;28;97474;-75
2022/03/13 18:44:39;;;;;;;26.02;17.52;;;;;;;;;;4994508;28;97371;-73
2022/03/13 18:47:11;;;;;;;28.55;17.92;;;;;;;;;;4992141;28;95450;-74
2022/03/13 18:49:38;;;;;;;29.20;18.73;;;;;;;;;;4991194;28;97173;-73
2022/03/13 18:52:04;;;;;;;26.70;17.00;;;;;;;;;;4992928;28;97885;-73
2022/03/13 18:54:31;;;;;;;26.83;17.60;;;;;;;;;;4995776;28;95332;-73
2022/03/13 18:56:57;;;;;;;31.88;17.55;;;;;;;;;;4990985;28;98444;-73
2022/03/13 18:59:27;;;;;;;28.20;17.73;;;;;;;;;;4992753;28;96136;-73
2022/03/13 19:01:53;;;;;;;28.65;17.60;;;;;;;;;;4998933;28;97449;-72
2022/03/13 19:04:20;;;;;;;29.73;16.95;;;;;;;;;;4995670;28;96893;-72
2022/03/13 19:06:46;;;;;;;24.15;16.10;;;;;;;;;;4990378;28;95563;-74
2022/03/13 19:09:13;;;;;;;26.65;15.32;;;;;;;;;;4998645;28;97402;-73
2022/03/13 19:11:39;;;;;;;23.02;15.30;;;;;;;;;;4994694;28;97526;-73
2022/03/13 19:14:25;;;;;;;23.15;13.98;;;;;;;;;;4993108;28;95392;-75
2022/03/13 19:17:11;;;;;;;21.15;12.13;;;;;;;;;;5001367;28;95606;-74
2022/03/13 19:19:43;;;;;;;20.90;13.45;;;;;;;;;;4996897;28;98345;-72
2022/03/13 19:22:10;;;;;;;17.63;11.48;;;;;;;;;;4987583;28;96338;-74
2022/03/13 19:24:37;;;;;;;19.23;11.98;;;;;;;;;;4984872;28;98526;-73
2022/03/13 19:27:04;;;;;;;18.55;12.20;;;;;;;;;;4980635;28;95472;-74
2022/03/13 19:29:30;;;;;;;19.60;12.88;;;;;;;;;;4979614;28;97416;-74
2022/03/13 19:31:56;;;;;;;21.15;14.73;;;;;;;;;;4981812;28;97470;-74
2022/03/13 19:34:23;;;;;;;26.48;16.70;;;;;;;;;;4977989;28;95518;-74
2022/03/13 19:36:49;;;;;;;19.40;12.98;;;;;;;;;;4984701;28;96868;-74
2022/03/13 19:39:16;;;;;;;21.73;14.00;;;;;;;;;;4982299;28;97337;-74
2022/03/13 19:41:43;;;;;;;20.58;13.13;;;;;;;;;;4989978;28;95842;-73
2022/03/13 19:44:11;;;;;;;24.13;15.50;;;;;;;;;;4975487;28;98529;-74
2022/03/13 19:46:38;;;;;;;16.27;11.27;;;;;;;;;;4986278;28;95493;-73
2022/03/13 19:49:04;;;;;;;16.40;10.60;;;;;;;;;;4978188;28;97162;-74
2022/03/13 19:51:32;;;;;;;15.07;10.45;;;;;;;;;;4979982;28;97242;-74
2022/03/13 19:54:01;;;;;;;14.07;10.20;;;;;;;;;;4982935;28;97035;-74
2022/03/13 19:56:27;;;;;;;17.23;9.60;;;;;;;;;;4977521;28;96841;-74
2022/03/13 19:59:13;;;;;;;11.15;7.70;;;;;;;;;;4978317;28;95666;-74
2022/03/13 20:01:53;;;;;;;12.70;8.40;;;;;;;;;;4983026;28;95835;-73
2022/03/13 20:04:36;;;;;;;13.02;8.80;;;;;;;;;;4981151;28;95136;-74
2022/03/13 20:07:03;;;;;;;14.10;8.70;;;;;;;;;;4977646;28;95816;-74
2022/03/13 20:09:34;;;;;;;14.63;10.88;;;;;;;;;;4975101;28;96762;-73
2022/03/13 20:12:00;;;;;;;15.77;10.82;;;;;;;;;;4983563;28;97407;-74
2022/03/13 20:17:12;;;;;;;13.98;10.30;;;;;;;;;;4987867;28;97178;-74
2022/03/13 20:19:39;;;;;;;15.93;11.90;;;;;;;;;;4978598;28;97312;-74
2022/03/13 20:22:06;;;;;;;14.25;10.20;;;;;;;;;;4979000;28;96652;-74
2022/03/13 20:24:33;;;;;;;13.23;9.10;;;;;;;;;;4976178;28;96813;-74
2022/03/13 20:26:59;;;;;;;14.65;9.63;;;;;;;;;;4980597;28;95841;-73
2022/03/13 20:29:26;;;;;;;10.73;7.75;;;;;;;;;;4978617;28;96870;-73
2022/03/13 20:31:53;;;;;;;11.60;7.22;;;;;;;;;;4982856;28;97630;-74
2022/03/13 20:34:19;;;;;;;15.60;7.43;;;;;;;;;;4977812;28;95697;-74
2022/03/13 20:37:04;;;;;;;13.73;7.57;;;;;;;;;;4974479;28;95268;-72
2022/03/13 20:42:16;;;;;;;10.13;6.60;;;;;;;;;;4975507;28;95681;-73
2022/03/13 20:44:43;;;;;;;11.02;6.80;;;;;;;;;;4979225;28;96125;-72
2022/03/13 20:47:27;;;;;;;12.60;6.65;;;;;;;;;;4989812;28;95319;-73
2022/03/13 20:49:53;;;;;;;9.60;6.38;;;;;;;;;;4977251;28;96065;-72
2022/03/13 20:52:19;;;;;;;11.80;6.57;;;;;;;;;;4982715;28;97235;-73
2022/03/13 20:54:47;;;;;;;9.13;6.30;;;;;;;;;;4976793;28;95310;-71
2022/03/13 20:57:16;;;;;;;13.55;6.65;;;;;;;;;;4979944;28;96843;-73
2022/03/13 20:59:43;;;;;;;9.40;6.10;;;;;;;;;;4980337;28;97322;-73
2022/03/13 21:02:09;;;;;;;11.38;6.60;;;;;;;;;;4987092;28;95518;-74
2022/03/13 21:04:42;;;;;;;11.15;6.32;;;;;;;;;;4974996;28;96774;-73
2022/03/13 21:07:09;;;;;;;11.45;6.95;;;;;;;;;;4985302;28;97378;-75
2022/03/13 21:09:36;;;;;;;9.80;6.78;;;;;;;;;;4982624;28;95599;-73
2022/03/13 21:12:03;;;;;;;10.32;6.88;;;;;;;;;;4979725;28;97294;-74
2022/03/13 21:14:47;;;;;;;8.70;5.60;;;;;;;;;;4978751;28;95713;-74
2022/03/13 21:17:13;;;;;;;9.02;5.40;;;;;;;;;;4980712;28;96754;-74
2022/03/13 21:19:40;;;;;;;11.90;5.20;;;;;;;;;;4976725;28;96159;-74
2022/03/13 21:22:07;;;;;;;7.60;5.15;;;;;;;;;;4977049;28;95294;-73
2022/03/13 21:24:33;;;;;;;7.70;4.80;;;;;;;;;;4979580;28;96925;-73
2022/03/13 21:27:00;;;;;;;7.15;4.72;;;;;;;;;;4978729;28;97353;-73
2022/03/13 21:29:27;;;;;;;8.45;4.65;;;;;;;;;;4975227;28;95564;-74
2022/03/13 21:31:54;;;;;;;7.63;4.00;;;;;;;;;;4988129;28;95523;-73
2022/03/13 21:34:21;;;;;;;6.63;3.65;;;;;;;;;;4978844;28;95513;-74
2022/03/13 21:36:49;;;;;;;5.30;3.30;;;;;;;;;;4983740;28;97166;-73
2022/03/13 21:39:15;;;;;;;5.15;3.40;;;;;;;;;;4987633;28;97713;-74
2022/03/13 21:41:42;;;;;;;6.47;3.72;;;;;;;;;;4987189;28;95773;-73
2022/03/13 21:44:09;;;;;;;6.75;3.40;;;;;;;;;;4986258;28;96913;-73
2022/03/13 21:46:35;;;;;;;4.95;3.05;;;;;;;;;;4988086;28;97961;-73
2022/03/13 21:49:02;;;;;;;5.43;3.30;;;;;;;;;;4987649;28;96079;-73
2022/03/13 21:51:29;;;;;;;5.80;3.20;;;;;;;;;;4989356;28;96085;-72
2022/03/13 21:53:55;;;;;;;6.07;3.30;;;;;;;;;;4992698;28;97402;-74
2022/03/13 21:56:38;;;;;;;5.07;3.27;;;;;;;;;;4990020;28;96780;-74
2022/03/13 21:59:05;;;;;;;6.05;3.08;;;;;;;;;;4982958;28;97343;-74
2022/03/13 22:01:51;;;;;;;6.72;2.83;;;;;;;;;;4969950;28;95695;-74
2022/03/13 22:07:21;;;;;;;;;;;;;;;;;;5010170;28;95894;-74
2022/03/13 22:09:47;;;;;;;4.97;2.92;;;;;;;;;;4996719;28;118069;-74
2022/03/13 22:12:18;;;;;;;4.53;2.90;;;;;;;;;;4988321;28;96935;-75
2022/03/13 22:14:49;;;;;;;5.25;3.22;;;;;;;;;;4989201;28;98052;-74
2022/03/13 22:17:16;;;;;;;5.05;2.90;;;;;;;;;;4992243;28;95732;-74
2022/03/13 22:19:45;;;;;;;5.30;2.92;;;;;;;;;;4988331;28;97568;-74
2022/03/13 22:22:12;;;;;;;4.97;3.20;;;;;;;;;;4988923;28;95375;-74
2022/03/13 22:24:39;;;;;;;5.32;2.90;;;;;;;;;;4985647;28;97166;-74
2022/03/13 22:27:23;;;;;;;4.15;2.70;;;;;;;;;;4988338;28;95601;-74
2022/03/13 22:29:49;;;;;;;6.25;2.80;;;;;;;;;;4988232;28;95829;-72
2022/03/13 22:32:16;;;;;;;4.75;3.20;;;;;;;;;;4987373;28;97321;-75
2022/03/13 22:35:00;;;;;;;4.97;3.22;;;;;;;;;;4970225;28;95738;-73
2022/03/13 22:37:26;;;;;;;5.45;2.95;;;;;;;;;;5011971;28;96221;-75
2022/03/13 22:40:12;;;;;;;6.00;3.50;;;;;;;;;;5007873;28;97444;-74
2022/03/13 22:42:38;;;;;;;5.43;2.90;;;;;;;;;;4993516;28;95730;-74
2022/03/13 22:45:05;;;;;;;5.20;2.80;;;;;;;;;;4988586;28;96781;-73
2022/03/13 22:50:17;;;;;;;6.72;3.33;;;;;;;;;;5002790;28;95975;-74
2022/03/13 22:52:44;;;;;;;5.60;3.20;;;;;;;;;;4991027;28;96781;-74
2022/03/13 22:55:12;;;;;;;5.30;3.30;;;;;;;;;;4987397;28;97285;-73
2022/03/13 22:57:40;;;;;;;5.75;3.00;;;;;;;;;;4988341;28;95423;-75
2022/03/13 23:00:08;;;;;;;5.40;3.35;;;;;;;;;;4992244;28;95880;-73
2022/03/13 23:02:34;;;;;;;5.38;3.03;;;;;;;;;;4990304;28;95377;-76
2022/03/13 23:05:00;;;;;;;4.80;3.22;;;;;;;;;;5003735;28;95630;-74
2022/03/13 23:07:28;;;;;;;5.47;3.67;;;;;;;;;;5011461;28;97207;-74
2022/03/13 23:09:55;;;;;;;9.40;3.60;;;;;;;;;;5005574;28;95315;-74
2022/03/13 23:12:22;;;;;;;5.80;3.80;;;;;;;;;;4990193;28;96897;-73
2022/03/13 23:14:50;;;;;;;5.82;3.20;;;;;;;;;;4990398;28;97372;-73
2022/03/13 23:17:17;;;;;;;7.05;3.60;;;;;;;;;;4991282;28;95448;-73
2022/03/13 23:19:44;;;;;;;5.28;3.47;;;;;;;;;;5002672;28;96824;-74
2022/03/13 23:22:11;;;;;;;5.85;3.75;;;;;;;;;;4994346;28;97296;-74
2022/03/13 23:24:39;;;;;;;8.43;3.80;;;;;;;;;;4990924;28;97162;-74
2022/03/13 23:27:08;;;;;;;6.30;3.53;;;;;;;;;;4991548;28;97121;-75
2022/03/13 23:29:37;;;;;;;5.88;3.63;;;;;;;;;;4991605;28;95623;-72
2022/03/13 23:32:06;;;;;;;5.47;3.42;;;;;;;;;;4992050;28;97278;-74
2022/03/13 23:34:34;;;;;;;6.95;3.63;;;;;;;;;;5005657;28;97390;-74
2022/03/13 23:37:02;;;;;;;8.45;3.83;;;;;;;;;;5007415;28;95837;-75
2022/03/13 23:39:30;;;;;;;6.70;3.63;;;;;;;;;;4991111;28;97067;-74
2022/03/13 23:42:14;;;;;;;6.88;3.83;;;;;;;;;;4991085;28;95694;-75
2022/03/13 23:44:40;;;;;;;6.22;3.88;;;;;;;;;;4994786;28;95377;-74
2022/03/13 23:47:07;;;;;;;6.32;3.47;;;;;;;;;;4989606;28;97711;-74
2022/03/13 23:49:51;;;;;;;6.72;3.40;;;;;;;;;;5003030;28;96675;-75
2022/03/13 23:52:54;;;;;;;6.28;3.55;;;;;;;;;;4991958;28;95639;-75
2022/03/13 23:55:21;;;;;;;5.03;3.40;;;;;;;;;;4991199;28;97759;-75
2022/03/13 23:57:47;;;;;;;5.80;3.40;;;;;;;;;;4990996;28;95611;-75
